Time;durP1;ratioP1;P1;durP2;ratioP2;P2;SDS_P1;SDS_P2;PMS_P1;PMS_P2;Temp;Humidity;BMP_temperature;BMP_pressure;BME280_temperature;BME280_humidity;BME280_pressure;Samples;Min_cycle;Max_cycle;Signal;HPM_P1;HPM_P2
2023/06/20 00:01:32;;;;;;;30.83;9.27;;;;;;;;;;5131871;27;20051;-80
2023/06/20 00:03:58;;;;;;;30.42;10.43;;;;;;;;;;5131740;27;20039;-79
2023/06/20 00:06:24;;;;;;;26.00;10.65;;;;;;;;;;5131932;27;20038;-79
2023/06/20 00:08:50;;;;;;;25.13;9.10;;;;;;;;;;5132055;27;20115;-77
2023/06/20 00:11:17;;;;;;;19.05;11.50;;;;;;;;;;5113058;27;20088;-79
2023/06/20 00:13:43;;;;;;;27.52;12.75;;;;;;;;;;5131897;27;20035;-80
2023/06/20 00:16:09;;;;;;;30.45;13.30;;;;;;;;;;5113178;27;20130;-80
2023/06/20 00:18:35;;;;;;;20.70;12.63;;;;;;;;;;5113208;27;20042;-78
2023/06/20 00:21:01;;;;;;;8.75;7.95;;;;;;;;;;5131745;27;20493;-79
2023/06/20 00:23:29;;;;;;;12.20;6.97;;;;;;;;;;5131717;27;20042;-79
2023/06/20 00:25:56;;;;;;;18.83;5.72;;;;;;;;;;5131640;27;20092;-79
2023/06/20 00:28:21;;;;;;;9.40;5.60;;;;;;;;;;5113620;27;20038;-77
2023/06/20 00:30:48;;;;;;;16.05;5.88;;;;;;;;;;5146382;27;20479;-79
2023/06/20 00:33:14;;;;;;;12.32;5.93;;;;;;;;;;5119851;27;20395;-79
2023/06/20 00:35:40;;;;;;;11.50;6.53;;;;;;;;;;5113606;27;20035;-79
2023/06/20 00:38:06;;;;;;;17.45;8.02;;;;;;;;;;5113398;28;20411;-80
2023/06/20 00:40:32;;;;;;;11.05;7.82;;;;;;;;;;5131413;27;20041;-79
2023/06/20 00:42:59;;;;;;;11.43;7.20;;;;;;;;;;5131521;27;20497;-80
2023/06/20 00:45:29;;;;;;;15.55;9.90;;;;;;;;;;5131688;27;20035;-80
2023/06/20 00:47:55;;;;;;;39.05;22.42;;;;;;;;;;5096506;27;20058;-78
2023/06/20 00:50:27;;;;;;;67.97;37.92;;;;;;;;;;5096672;27;20035;-81
2023/06/20 00:52:57;;;;;;;73.95;43.00;;;;;;;;;;5113373;27;20088;-78
2023/06/20 00:55:25;;;;;;;55.90;33.38;;;;;;;;;;5131556;27;20505;-80
2023/06/20 00:57:52;;;;;;;67.50;42.22;;;;;;;;;;5113418;27;20047;-79
2023/06/20 01:00:18;;;;;;;61.33;39.38;;;;;;;;;;5112904;27;20031;-79
2023/06/20 01:02:46;;;;;;;54.72;27.75;;;;;;;;;;5131163;27;20099;-79
2023/06/20 01:05:13;;;;;;;101.20;61.17;;;;;;;;;;5112813;27;20036;-79
2023/06/20 01:07:45;;;;;;;53.42;33.42;;;;;;;;;;5114653;27;20046;-79
2023/06/20 01:10:33;;;;;;;62.33;37.33;;;;;;;;;;5099570;27;20050;-79
2023/06/20 01:13:02;;;;;;;69.55;47.58;;;;;;;;;;5117015;27;20047;-79
2023/06/20 01:15:34;;;;;;;67.95;40.55;;;;;;;;;;5116390;27;20023;-79
2023/06/20 01:18:02;;;;;;;95.18;63.60;;;;;;;;;;5099814;27;20180;-80
2023/06/20 01:20:32;;;;;;;56.40;36.88;;;;;;;;;;5116813;27;20497;-79
2023/06/20 01:22:58;;;;;;;92.10;58.83;;;;;;;;;;5100122;27;20509;-81
2023/06/20 01:25:31;;;;;;;81.63;49.63;;;;;;;;;;5134925;27;20288;-80
2023/06/20 01:28:08;;;;;;;87.07;52.42;;;;;;;;;;5135157;27;20039;-80
2023/06/20 01:30:36;;;;;;;92.30;51.90;;;;;;;;;;5116291;27;20095;-80
2023/06/20 01:33:03;;;;;;;78.43;42.22;;;;;;;;;;5100113;27;20039;-80
2023/06/20 01:35:30;;;;;;;56.75;29.65;;;;;;;;;;5116458;27;20035;-79
2023/06/20 01:37:58;;;;;;;29.63;18.30;;;;;;;;;;5116655;27;20091;-79
2023/06/20 01:40:24;;;;;;;34.03;17.15;;;;;;;;;;5099473;27;20074;-80
2023/06/20 01:42:50;;;;;;;46.55;23.10;;;;;;;;;;5116567;27;20043;-78
2023/06/20 01:45:17;;;;;;;47.13;23.50;;;;;;;;;;5116575;27;20027;-80
2023/06/20 01:47:43;;;;;;;39.25;25.27;;;;;;;;;;5116701;27;20047;-81
2023/06/20 01:50:10;;;;;;;55.50;26.08;;;;;;;;;;5135132;27;20091;-80
2023/06/20 01:52:35;;;;;;;57.42;30.42;;;;;;;;;;5116368;27;20035;-81
2023/06/20 01:55:04;;;;;;;50.85;25.20;;;;;;;;;;5099573;27;20489;-80
2023/06/20 01:57:31;;;;;;;44.33;26.30;;;;;;;;;;5134794;27;20043;-79
2023/06/20 01:59:57;;;;;;;57.70;20.88;;;;;;;;;;5116790;27;20042;-79
2023/06/20 02:02:23;;;;;;;49.67;19.23;;;;;;;;;;5099636;27;20408;-79
2023/06/20 02:04:50;;;;;;;41.25;17.52;;;;;;;;;;5116600;27;20501;-80
2023/06/20 02:07:16;;;;;;;36.63;15.98;;;;;;;;;;5135335;27;20027;-80
2023/06/20 02:09:44;;;;;;;43.05;15.07;;;;;;;;;;5082884;27;20499;-80
2023/06/20 02:12:10;;;;;;;34.35;15.85;;;;;;;;;;5124705;27;20118;-79
2023/06/20 02:14:37;;;;;;;41.92;15.63;;;;;;;;;;5125442;27;20086;-80
2023/06/20 02:17:04;;;;;;;44.70;15.48;;;;;;;;;;5090383;27;20539;-79
2023/06/20 02:19:31;;;;;;;38.60;16.63;;;;;;;;;;5116774;27;20023;-81
2023/06/20 02:21:57;;;;;;;34.30;15.77;;;;;;;;;;5131877;27;20042;-81
2023/06/20 02:24:23;;;;;;;40.17;14.25;;;;;;;;;;5124024;27;20536;-81
2023/06/20 02:26:49;;;;;;;37.25;14.77;;;;;;;;;;5136768;27;20039;-81
2023/06/20 02:29:17;;;;;;;31.45;14.45;;;;;;;;;;5118664;27;20038;-79
2023/06/20 02:31:47;;;;;;;31.63;11.57;;;;;;;;;;5118724;27;20093;-80
2023/06/20 02:34:14;;;;;;;28.00;10.00;;;;;;;;;;5103186;27;20038;-81
2023/06/20 02:36:44;;;;;;;26.80;10.80;;;;;;;;;;5102527;27;20039;-80
2023/06/20 02:39:10;;;;;;;21.42;9.57;;;;;;;;;;5138713;27;20034;-80
2023/06/20 02:41:36;;;;;;;29.33;9.88;;;;;;;;;;5119148;27;20043;-79
2023/06/20 02:44:02;;;;;;;24.20;9.48;;;;;;;;;;5136759;27;20042;-80
2023/06/20 02:46:47;;;;;;;26.65;9.75;;;;;;;;;;5135635;27;20043;-80
2023/06/20 02:49:19;;;;;;;19.45;9.57;;;;;;;;;;5135354;27;20043;-80
2023/06/20 02:52:05;;;;;;;23.70;9.02;;;;;;;;;;5134460;27;20023;-80
2023/06/20 02:54:35;;;;;;;24.02;10.13;;;;;;;;;;5116115;27;20054;-80
2023/06/20 02:57:01;;;;;;;23.50;9.60;;;;;;;;;;5134628;27;20412;-80
2023/06/20 02:59:28;;;;;;;27.27;9.85;;;;;;;;;;5098816;27;20031;-81
2023/06/20 03:01:56;;;;;;;21.25;9.05;;;;;;;;;;5099539;27;20038;-80
2023/06/20 03:04:24;;;;;;;17.60;8.10;;;;;;;;;;5100125;27;20039;-82
2023/06/20 03:06:51;;;;;;;31.02;8.93;;;;;;;;;;5116147;27;20405;-81
2023/06/20 03:09:17;;;;;;;18.60;8.13;;;;;;;;;;5099801;27;20351;-79
2023/06/20 03:11:43;;;;;;;30.95;9.68;;;;;;;;;;5134808;27;20475;-80
2023/06/20 03:14:12;;;;;;;21.77;8.95;;;;;;;;;;5117654;27;20095;-81
2023/06/20 03:16:41;;;;;;;22.83;11.20;;;;;;;;;;5099729;27;20122;-81
2023/06/20 03:19:10;;;;;;;17.33;9.25;;;;;;;;;;5116415;27;20035;-81
2023/06/20 03:21:40;;;;;;;24.77;9.18;;;;;;;;;;5115989;27;20027;-79
2023/06/20 03:24:08;;;;;;;25.63;8.45;;;;;;;;;;5116247;27;20254;-81
2023/06/20 03:26:36;;;;;;;19.58;8.20;;;;;;;;;;5115941;27;20035;-80
2023/06/20 03:29:02;;;;;;;17.25;8.40;;;;;;;;;;5082389;27;20121;-81
2023/06/20 03:31:29;;;;;;;16.23;8.13;;;;;;;;;;5099673;27;20035;-81
2023/06/20 03:33:57;;;;;;;10.93;7.80;;;;;;;;;;5116414;27;20050;-81
2023/06/20 03:36:23;;;;;;;16.48;7.32;;;;;;;;;;5099410;27;20039;-80
2023/06/20 03:38:52;;;;;;;13.70;7.03;;;;;;;;;;5098662;27;20074;-81
2023/06/20 03:41:20;;;;;;;19.13;7.30;;;;;;;;;;5115824;27;20092;-81
2023/06/20 03:43:46;;;;;;;16.15;7.72;;;;;;;;;;5133820;27;20035;-80
2023/06/20 03:46:14;;;;;;;13.27;6.95;;;;;;;;;;5116860;27;20092;-79
2023/06/20 03:48:40;;;;;;;15.60;6.63;;;;;;;;;;5117175;27;20033;-81
2023/06/20 03:51:07;;;;;;;17.13;6.85;;;;;;;;;;5100129;27;20122;-81
2023/06/20 03:53:34;;;;;;;13.85;6.95;;;;;;;;;;5098730;27;20028;-82
2023/06/20 03:56:02;;;;;;;28.77;8.07;;;;;;;;;;5116637;27;20034;-81
2023/06/20 03:58:30;;;;;;;18.45;6.95;;;;;;;;;;5117541;27;20050;-82
2023/06/20 04:00:56;;;;;;;16.48;6.85;;;;;;;;;;5100251;27;20032;-79
2023/06/20 04:03:22;;;;;;;18.17;7.38;;;;;;;;;;5117178;27;20111;-81
2023/06/20 04:05:49;;;;;;;18.35;6.45;;;;;;;;;;5135486;27;20030;-81
2023/06/20 04:08:14;;;;;;;21.50;6.72;;;;;;;;;;5135010;27;20038;-81
2023/06/20 04:10:41;;;;;;;15.70;6.97;;;;;;;;;;5137759;27;20050;-83
2023/06/20 04:13:08;;;;;;;14.35;7.10;;;;;;;;;;5153392;27;20035;-81
2023/06/20 04:15:34;;;;;;;16.33;7.13;;;;;;;;;;5102172;27;20030;-81
2023/06/20 04:18:00;;;;;;;11.50;7.10;;;;;;;;;;5135941;27;20035;-81
2023/06/20 04:20:26;;;;;;;8.77;5.80;;;;;;;;;;5116484;27;20035;-80
2023/06/20 04:22:52;;;;;;;20.85;6.72;;;;;;;;;;5115277;27;20030;-81
2023/06/20 04:25:18;;;;;;;18.00;6.47;;;;;;;;;;5114308;27;20031;-80
2023/06/20 04:27:53;;;;;;;9.23;4.55;;;;;;;;;;5113900;28;20042;-80
2023/06/20 04:30:20;;;;;;;6.20;3.90;;;;;;;;;;5113768;27;20031;-80
2023/06/20 04:32:48;;;;;;;5.65;3.20;;;;;;;;;;5098331;27;20094;-81
2023/06/20 04:35:14;;;;;;;6.82;3.40;;;;;;;;;;5115528;27;20566;-80
2023/06/20 04:37:42;;;;;;;6.07;2.95;;;;;;;;;;5114976;28;20083;-80
2023/06/20 04:40:11;;;;;;;3.78;3.17;;;;;;;;;;5115398;27;20372;-79
2023/06/20 04:42:37;;;;;;;3.28;2.97;;;;;;;;;;5114318;28;20420;-80
2023/06/20 04:45:04;;;;;;;9.57;3.13;;;;;;;;;;5134929;27;20125;-78
2023/06/20 04:47:32;;;;;;;5.95;3.60;;;;;;;;;;5117075;27;20059;-81
2023/06/20 04:50:03;;;;;;;6.10;3.00;;;;;;;;;;5136124;27;20027;-81
2023/06/20 04:52:32;;;;;;;3.88;2.85;;;;;;;;;;5116923;28;20087;-81
2023/06/20 04:55:03;;;;;;;2.03;1.80;;;;;;;;;;5116342;28;20412;-81
2023/06/20 04:57:32;;;;;;;2.67;2.47;;;;;;;;;;5115583;27;20051;-82
2023/06/20 04:59:58;;;;;;;2.53;2.33;;;;;;;;;;5131901;27;20034;-82
2023/06/20 05:02:24;;;;;;;7.10;3.50;;;;;;;;;;5113413;28;20050;-80
2023/06/20 05:04:51;;;;;;;2.42;2.22;;;;;;;;;;5113449;28;20042;-81
2023/06/20 05:07:17;;;;;;;4.10;2.40;;;;;;;;;;5131767;27;20039;-80
2023/06/20 05:09:43;;;;;;;3.00;2.80;;;;;;;;;;5079506;28;20047;-82
2023/06/20 05:12:09;;;;;;;3.60;2.90;;;;;;;;;;5132037;27;20034;-84
2023/06/20 05:14:35;;;;;;;2.97;2.38;;;;;;;;;;5132650;27;20114;-84
2023/06/20 05:17:02;;;;;;;4.55;3.05;;;;;;;;;;5134225;27;20066;-82
2023/06/20 05:19:28;;;;;;;3.85;3.00;;;;;;;;;;5126244;27;20039;-80
2023/06/20 05:21:54;;;;;;;3.28;2.90;;;;;;;;;;5144079;27;20072;-81
2023/06/20 05:24:20;;;;;;;3.13;2.70;;;;;;;;;;5117507;27;20416;-82
2023/06/20 05:26:46;;;;;;;4.65;2.65;;;;;;;;;;5133871;27;20031;-79
2023/06/20 05:29:12;;;;;;;7.18;3.00;;;;;;;;;;5132466;27;20050;-81
2023/06/20 05:31:41;;;;;;;3.13;2.40;;;;;;;;;;5131438;27;20038;-81
2023/06/20 05:34:08;;;;;;;3.93;2.77;;;;;;;;;;5096847;28;20549;-82
2023/06/20 05:36:34;;;;;;;3.55;2.70;;;;;;;;;;5132130;27;20295;-82
2023/06/20 05:39:00;;;;;;;5.07;2.60;;;;;;;;;;5096851;27;20035;-82
2023/06/20 05:41:26;;;;;;;5.63;2.60;;;;;;;;;;5132031;27;20485;-82
2023/06/20 05:43:52;;;;;;;4.50;2.70;;;;;;;;;;5132009;27;20071;-82
2023/06/20 05:46:19;;;;;;;4.35;2.40;;;;;;;;;;5132104;27;20119;-81
2023/06/20 05:48:48;;;;;;;6.20;2.60;;;;;;;;;;5132597;27;20035;-82
2023/06/20 05:51:14;;;;;;;2.42;2.22;;;;;;;;;;5131827;27;20035;-83
2023/06/20 05:53:42;;;;;;;5.65;2.65;;;;;;;;;;5114831;27;20099;-82
2023/06/20 05:56:09;;;;;;;13.35;2.72;;;;;;;;;;5100742;27;20049;-83
2023/06/20 05:58:36;;;;;;;3.90;3.00;;;;;;;;;;5135453;27;20043;-82
2023/06/20 06:01:03;;;;;;;5.88;2.60;;;;;;;;;;5125124;27;20039;-80
2023/06/20 06:03:30;;;;;;;3.30;2.85;;;;;;;;;;5137223;27;20031;-80
2023/06/20 06:05:57;;;;;;;5.28;2.40;;;;;;;;;;5143194;27;20035;-81
2023/06/20 06:08:23;;;;;;;3.10;2.50;;;;;;;;;;5136705;27;20031;-82
2023/06/20 06:10:49;;;;;;;4.63;2.65;;;;;;;;;;5135166;27;20054;-83
2023/06/20 06:13:15;;;;;;;4.60;2.53;;;;;;;;;;5100252;27;20039;-83
2023/06/20 06:15:42;;;;;;;6.05;2.95;;;;;;;;;;5135124;27;20031;-83
2023/06/20 06:18:08;;;;;;;3.00;2.30;;;;;;;;;;5135043;27;20043;-83
2023/06/20 06:20:34;;;;;;;2.28;2.08;;;;;;;;;;5135155;27;20070;-82
2023/06/20 06:23:00;;;;;;;5.05;2.90;;;;;;;;;;5134986;27;20041;-82
2023/06/20 06:25:26;;;;;;;2.97;2.58;;;;;;;;;;5116631;27;20118;-82
2023/06/20 06:27:52;;;;;;;6.28;2.40;;;;;;;;;;5134773;27;20483;-82
2023/06/20 06:30:18;;;;;;;4.70;2.70;;;;;;;;;;5134623;27;20109;-82
2023/06/20 06:32:47;;;;;;;7.72;3.13;;;;;;;;;;5134250;27;20039;-82
2023/06/20 06:35:14;;;;;;;3.07;2.77;;;;;;;;;;5134712;27;20035;-81
2023/06/20 06:37:40;;;;;;;2.42;2.22;;;;;;;;;;5133806;27;20117;-81
2023/06/20 06:40:07;;;;;;;5.20;2.47;;;;;;;;;;5134144;27;20339;-82
2023/06/20 06:42:33;;;;;;;9.00;3.00;;;;;;;;;;5133791;27;20129;-82
2023/06/20 06:45:01;;;;;;;5.28;2.67;;;;;;;;;;5115906;27;20520;-82
2023/06/20 06:47:34;;;;;;;8.07;2.25;;;;;;;;;;5134503;27;20042;-82
2023/06/20 06:50:01;;;;;;;6.40;2.83;;;;;;;;;;5134038;27;20031;-81
2023/06/20 06:52:32;;;;;;;3.88;2.30;;;;;;;;;;5135642;27;20027;-83
2023/06/20 06:54:58;;;;;;;4.05;2.42;;;;;;;;;;5134993;27;20027;-82
2023/06/20 06:57:24;;;;;;;6.57;2.80;;;;;;;;;;5135080;27;20047;-82
2023/06/20 06:59:50;;;;;;;2.75;2.15;;;;;;;;;;5134703;27;20508;-81
2023/06/20 07:02:16;;;;;;;3.80;2.22;;;;;;;;;;5115611;27;20046;-81
2023/06/20 07:04:43;;;;;;;5.15;2.28;;;;;;;;;;5133590;27;20066;-82
2023/06/20 07:07:09;;;;;;;2.97;2.63;;;;;;;;;;5098970;27;20091;-82
2023/06/20 07:09:36;;;;;;;9.60;2.30;;;;;;;;;;5133933;27;20102;-82
2023/06/20 07:12:05;;;;;;;6.05;2.38;;;;;;;;;;5133991;27;20228;-82
2023/06/20 07:14:33;;;;;;;5.93;2.43;;;;;;;;;;5115129;27;20031;-83
2023/06/20 07:16:59;;;;;;;6.28;2.60;;;;;;;;;;5132983;27;20312;-81
2023/06/20 07:19:25;;;;;;;4.15;2.50;;;;;;;;;;5133562;27;20035;-81
2023/06/20 07:21:52;;;;;;;2.22;2.03;;;;;;;;;;5133108;27;20039;-82
2023/06/20 07:24:18;;;;;;;2.03;1.83;;;;;;;;;;5133072;27;20023;-81
2023/06/20 07:26:44;;;;;;;4.53;2.35;;;;;;;;;;5132918;27;20101;-81
2023/06/20 07:29:10;;;;;;;2.90;2.10;;;;;;;;;;5133054;27;20119;-82
2023/06/20 07:31:37;;;;;;;3.42;2.30;;;;;;;;;;5133589;27;20088;-82
2023/06/20 07:34:03;;;;;;;5.78;2.90;;;;;;;;;;5132704;27;20066;-81
2023/06/20 07:36:28;;;;;;;5.65;2.60;;;;;;;;;;5114485;27;20524;-81
2023/06/20 07:38:54;;;;;;;4.00;2.38;;;;;;;;;;5133252;27;20520;-81
2023/06/20 07:41:20;;;;;;;5.68;2.40;;;;;;;;;;5132857;27;20118;-83
2023/06/20 07:43:46;;;;;;;5.68;2.30;;;;;;;;;;5114934;27;20058;-81
2023/06/20 07:46:12;;;;;;;6.03;2.67;;;;;;;;;;5115996;27;20038;-81
2023/06/20 07:48:39;;;;;;;2.83;2.63;;;;;;;;;;5140688;27;20095;-81
2023/06/20 07:51:05;;;;;;;3.10;2.22;;;;;;;;;;5145852;27;20453;-82
2023/06/20 07:53:31;;;;;;;4.05;2.67;;;;;;;;;;5134714;27;20031;-80
2023/06/20 07:55:59;;;;;;;4.30;2.20;;;;;;;;;;5133500;27;20079;-81
2023/06/20 07:58:25;;;;;;;3.65;2.47;;;;;;;;;;5097829;27;20077;-82
2023/06/20 08:00:52;;;;;;;13.15;2.33;;;;;;;;;;5132801;27;20058;-83
2023/06/20 08:03:24;;;;;;;2.60;2.40;;;;;;;;;;5133086;27;20042;-84
2023/06/20 08:05:51;;;;;;;5.10;2.90;;;;;;;;;;5113774;27;20123;-83
2023/06/20 08:08:17;;;;;;;2.58;2.15;;;;;;;;;;5133554;27;20031;-82
2023/06/20 08:10:43;;;;;;;5.03;2.42;;;;;;;;;;5115157;27;20055;-80
2023/06/20 08:13:09;;;;;;;6.75;2.63;;;;;;;;;;5126554;27;20408;-81
2023/06/20 08:15:35;;;;;;;4.85;2.72;;;;;;;;;;5134142;27;20100;-82
2023/06/20 08:18:02;;;;;;;2.97;2.78;;;;;;;;;;5131595;27;20046;-81
2023/06/20 08:20:28;;;;;;;7.55;1.90;;;;;;;;;;5115236;27;20062;-82
2023/06/20 08:22:54;;;;;;;3.92;2.03;;;;;;;;;;5134989;27;20046;-83
2023/06/20 08:25:20;;;;;;;7.65;2.28;;;;;;;;;;5143283;27;20035;-80
2023/06/20 08:27:46;;;;;;;12.52;2.35;;;;;;;;;;5142692;27;20054;-80
2023/06/20 08:30:12;;;;;;;2.65;1.83;;;;;;;;;;5136049;27;20030;-81
2023/06/20 08:32:41;;;;;;;2.90;2.70;;;;;;;;;;5113475;27;20409;-80
2023/06/20 08:35:09;;;;;;;6.23;3.23;;;;;;;;;;5131596;27;20036;-81
2023/06/20 08:37:36;;;;;;;3.67;2.90;;;;;;;;;;5131541;27;20674;-81
2023/06/20 08:40:03;;;;;;;4.28;1.98;;;;;;;;;;5113150;27;20118;-82
2023/06/20 08:42:30;;;;;;;6.32;2.42;;;;;;;;;;5131364;27;20091;-82
2023/06/20 08:44:57;;;;;;;5.22;2.40;;;;;;;;;;5131177;27;20410;-80
2023/06/20 08:47:25;;;;;;;12.23;3.00;;;;;;;;;;5132274;27;20049;-79
2023/06/20 08:49:51;;;;;;;3.97;2.42;;;;;;;;;;5132315;27;20032;-81
2023/06/20 08:52:18;;;;;;;2.97;2.65;;;;;;;;;;5114051;27;20067;-80
2023/06/20 08:54:48;;;;;;;2.03;1.92;;;;;;;;;;5113941;28;20027;-81
2023/06/20 08:57:15;;;;;;;3.35;2.75;;;;;;;;;;5132467;27;20043;-81
2023/06/20 08:59:41;;;;;;;2.15;1.70;;;;;;;;;;5113190;27;20130;-81
2023/06/20 09:02:08;;;;;;;6.43;2.90;;;;;;;;;;5114042;27;20075;-81
2023/06/20 09:04:34;;;;;;;3.15;2.60;;;;;;;;;;5131912;27;20019;-82
2023/06/20 09:07:01;;;;;;;5.00;2.67;;;;;;;;;;5131792;27;20465;-81
2023/06/20 09:09:27;;;;;;;4.18;3.13;;;;;;;;;;5113408;27;20588;-81
2023/06/20 09:11:58;;;;;;;6.70;3.08;;;;;;;;;;5131755;27;20074;-81
2023/06/20 09:14:28;;;;;;;4.68;3.40;;;;;;;;;;5113744;27;20489;-81
2023/06/20 09:16:54;;;;;;;4.20;2.78;;;;;;;;;;5131340;27;20067;-83
2023/06/20 09:19:20;;;;;;;3.08;2.58;;;;;;;;;;5113269;28;20072;-83
2023/06/20 09:21:48;;;;;;;7.93;2.65;;;;;;;;;;5131026;27;20078;-81
2023/06/20 09:24:19;;;;;;;4.70;2.80;;;;;;;;;;5112896;27;20046;-81
2023/06/20 09:26:46;;;;;;;10.13;2.33;;;;;;;;;;5130815;27;20099;-80
2023/06/20 09:29:14;;;;;;;3.17;2.75;;;;;;;;;;5081654;27;20038;-82
2023/06/20 09:31:45;;;;;;;2.83;2.58;;;;;;;;;;5116378;27;20039;-81
2023/06/20 09:34:12;;;;;;;6.82;2.38;;;;;;;;;;5116686;27;20268;-82
2023/06/20 09:36:39;;;;;;;3.13;2.85;;;;;;;;;;5117732;27;20043;-80
2023/06/20 09:39:10;;;;;;;4.88;2.97;;;;;;;;;;5151216;27;20111;-81
2023/06/20 09:41:36;;;;;;;3.65;2.75;;;;;;;;;;5135707;27;20076;-81
2023/06/20 09:44:03;;;;;;;7.43;3.00;;;;;;;;;;5100258;27;20531;-81
2023/06/20 09:46:29;;;;;;;3.88;3.10;;;;;;;;;;5135075;27;20042;-81
2023/06/20 09:48:55;;;;;;;4.30;2.95;;;;;;;;;;5134516;27;20031;-81
2023/06/20 09:51:21;;;;;;;5.72;2.75;;;;;;;;;;5116478;27;20090;-81
2023/06/20 09:53:47;;;;;;;3.28;2.70;;;;;;;;;;5116477;27;20077;-81
2023/06/20 09:56:14;;;;;;;3.55;2.97;;;;;;;;;;5134193;27;20027;-81
2023/06/20 09:58:44;;;;;;;6.32;2.78;;;;;;;;;;5134756;27;20187;-80
2023/06/20 10:01:10;;;;;;;3.88;3.00;;;;;;;;;;5134424;27;20043;-81
2023/06/20 10:03:37;;;;;;;10.88;3.35;;;;;;;;;;5134977;27;20043;-81
2023/06/20 10:06:03;;;;;;;6.03;2.75;;;;;;;;;;5115858;27;20561;-81
2023/06/20 10:08:29;;;;;;;8.63;2.40;;;;;;;;;;5134132;27;20062;-82
2023/06/20 10:10:55;;;;;;;3.17;2.88;;;;;;;;;;5115361;27;20070;-79
2023/06/20 10:13:22;;;;;;;4.90;2.88;;;;;;;;;;5115413;27;20062;-81
2023/06/20 10:15:48;;;;;;;9.38;3.38;;;;;;;;;;5115999;27;20435;-82
2023/06/20 10:18:29;;;;;;;3.55;3.00;;;;;;;;;;5115545;27;20512;-81
2023/06/20 10:20:55;;;;;;;8.63;3.40;;;;;;;;;;5115723;27;20027;-81
2023/06/20 10:23:28;;;;;;;6.55;3.17;;;;;;;;;;5134048;27;20515;-80
2023/06/20 10:25:58;;;;;;;4.40;3.08;;;;;;;;;;5115211;27;20527;-81
2023/06/20 10:28:24;;;;;;;2.92;2.65;;;;;;;;;;5115334;27;20035;-81
2023/06/20 10:30:50;;;;;;;2.25;2.15;;;;;;;;;;5133679;27;20031;-80
2023/06/20 10:33:30;;;;;;;3.17;2.60;;;;;;;;;;5133508;27;20498;-81
2023/06/20 10:35:56;;;;;;;3.00;2.80;;;;;;;;;;5133487;27;20053;-80
2023/06/20 10:38:22;;;;;;;3.42;3.13;;;;;;;;;;5115197;27;20505;-81
2023/06/20 10:40:48;;;;;;;4.70;2.88;;;;;;;;;;5115117;27;20027;-82
2023/06/20 10:43:15;;;;;;;4.57;3.15;;;;;;;;;;5115128;27;20039;-82
2023/06/20 10:45:51;;;;;;;7.95;3.08;;;;;;;;;;5133540;27;20027;-81
2023/06/20 10:48:17;;;;;;;3.42;3.10;;;;;;;;;;5133160;27;20046;-81
2023/06/20 10:50:43;;;;;;;1.65;1.55;;;;;;;;;;5133492;27;20031;-83
2023/06/20 10:53:09;;;;;;;6.75;2.95;;;;;;;;;;5097686;27;20079;-81
2023/06/20 10:55:37;;;;;;;6.00;3.08;;;;;;;;;;5133196;27;20035;-81
2023/06/20 10:58:03;;;;;;;4.30;2.95;;;;;;;;;;5132691;27;20050;-81
2023/06/20 11:00:29;;;;;;;5.85;3.22;;;;;;;;;;5098015;27;20035;-81
2023/06/20 11:02:55;;;;;;;3.10;2.80;;;;;;;;;;5133186;27;20027;-81
2023/06/20 11:05:26;;;;;;;3.70;2.92;;;;;;;;;;5133101;27;20038;-80
2023/06/20 11:07:56;;;;;;;5.50;2.88;;;;;;;;;;5132865;27;20080;-80
2023/06/20 11:10:32;;;;;;;3.83;2.95;;;;;;;;;;5132894;27;20043;-81
2023/06/20 11:13:02;;;;;;;8.88;2.40;;;;;;;;;;5132567;27;20116;-81
2023/06/20 11:15:28;;;;;;;4.63;3.10;;;;;;;;;;5115180;27;20516;-82
2023/06/20 11:17:59;;;;;;;3.78;3.00;;;;;;;;;;5114759;27;20517;-82
2023/06/20 11:20:26;;;;;;;6.72;3.65;;;;;;;;;;5133454;27;20027;-82
2023/06/20 11:22:52;;;;;;;3.97;3.33;;;;;;;;;;5115177;27;20378;-80
2023/06/20 11:25:22;;;;;;;3.72;3.20;;;;;;;;;;5142665;27;20035;-78
2023/06/20 11:27:49;;;;;;;3.00;2.80;;;;;;;;;;5130729;27;20067;-82
2023/06/20 11:30:15;;;;;;;12.10;3.95;;;;;;;;;;5144714;27;20047;-81
2023/06/20 11:32:56;;;;;;;8.77;2.97;;;;;;;;;;5116187;27;20031;-80
2023/06/20 11:35:22;;;;;;;10.93;3.65;;;;;;;;;;5133578;27;20054;-81
2023/06/20 11:37:48;;;;;;;6.40;3.58;;;;;;;;;;5114110;27;20054;-79
2023/06/20 11:40:14;;;;;;;3.85;3.55;;;;;;;;;;5114038;27;20035;-80
2023/06/20 11:42:40;;;;;;;3.58;3.25;;;;;;;;;;5132279;27;20501;-80
2023/06/20 11:45:09;;;;;;;4.53;3.72;;;;;;;;;;5132360;27;20031;-80
2023/06/20 11:47:35;;;;;;;3.40;3.20;;;;;;;;;;5080311;27;20038;-80
2023/06/20 11:50:01;;;;;;;3.70;3.40;;;;;;;;;;5132005;27;20037;-80
2023/06/20 11:52:32;;;;;;;5.60;3.35;;;;;;;;;;5131882;27;20031;-80
2023/06/20 11:55:03;;;;;;;5.03;3.33;;;;;;;;;;5131972;27;20032;-80
2023/06/20 11:57:30;;;;;;;4.85;3.40;;;;;;;;;;5114464;27;20126;-81
2023/06/20 12:00:07;;;;;;;5.72;3.20;;;;;;;;;;5131884;27;20026;-79
2023/06/20 12:02:37;;;;;;;8.15;3.45;;;;;;;;;;5131790;27;20046;-79
2023/06/20 12:05:04;;;;;;;5.07;3.30;;;;;;;;;;5131460;27;20118;-81
2023/06/20 12:07:30;;;;;;;3.65;3.33;;;;;;;;;;5131707;27;20413;-81
2023/06/20 12:10:05;;;;;;;2.40;2.25;;;;;;;;;;5131543;27;20130;-79
2023/06/20 12:12:31;;;;;;;4.22;3.47;;;;;;;;;;5131620;27;20042;-80
2023/06/20 12:14:57;;;;;;;5.97;3.13;;;;;;;;;;5113365;27;20030;-79
2023/06/20 12:17:24;;;;;;;8.18;3.70;;;;;;;;;;5112664;27;20047;-79
2023/06/20 12:19:50;;;;;;;15.15;4.05;;;;;;;;;;5131643;27;20023;-79
2023/06/20 12:22:16;;;;;;;7.50;4.00;;;;;;;;;;5134794;27;20501;-86
2023/06/20 12:24:42;;;;;;;22.50;4.15;;;;;;;;;;5138418;27;20061;-80
2023/06/20 12:27:11;;;;;;;9.40;3.95;;;;;;;;;;5115930;28;20118;-83
2023/06/20 12:29:37;;;;;;;6.28;4.05;;;;;;;;;;5139062;27;20031;-83
2023/06/20 12:32:04;;;;;;;5.88;3.60;;;;;;;;;;5144290;27;20035;-84
2023/06/20 12:34:30;;;;;;;11.93;3.97;;;;;;;;;;5145138;27;20083;-83
2023/06/20 12:36:56;;;;;;;10.32;3.70;;;;;;;;;;5140278;27;20039;-83
2023/06/20 12:39:22;;;;;;;4.75;3.63;;;;;;;;;;5123629;27;20037;-83
2023/06/20 12:41:48;;;;;;;5.38;3.58;;;;;;;;;;5151929;27;20036;-84
2023/06/20 12:44:14;;;;;;;4.05;3.63;;;;;;;;;;5131739;28;20091;-85
2023/06/20 12:46:41;;;;;;;4.25;3.10;;;;;;;;;;5146643;27;20043;-83
2023/06/20 12:49:06;;;;;;;4.07;3.15;;;;;;;;;;5140703;27;20541;-84
2023/06/20 12:51:35;;;;;;;8.60;3.38;;;;;;;;;;5149529;27;20035;-83
2023/06/20 12:54:01;;;;;;;6.30;3.22;;;;;;;;;;5142855;27;20042;-80
2023/06/20 12:56:27;;;;;;;5.28;3.05;;;;;;;;;;5146386;27;20043;-84
2023/06/20 12:58:53;;;;;;;4.28;3.88;;;;;;;;;;5121888;28;20188;-84
2023/06/20 13:01:23;;;;;;;3.47;3.15;;;;;;;;;;5149933;27;20055;-84
2023/06/20 13:03:49;;;;;;;5.93;3.45;;;;;;;;;;5094519;27;20027;-80
2023/06/20 13:06:18;;;;;;;3.40;3.20;;;;;;;;;;5137832;27;20031;-83
2023/06/20 13:08:44;;;;;;;4.30;3.45;;;;;;;;;;5109243;27;20023;-81
2023/06/20 13:11:13;;;;;;;6.25;3.53;;;;;;;;;;5134837;27;20138;-83
2023/06/20 13:13:39;;;;;;;4.32;3.28;;;;;;;;;;5150120;27;20042;-83
2023/06/20 13:16:05;;;;;;;3.50;3.20;;;;;;;;;;5133751;27;20027;-82
2023/06/20 13:18:31;;;;;;;5.57;3.00;;;;;;;;;;5144768;27;20091;-82
2023/06/20 13:20:58;;;;;;;4.13;3.47;;;;;;;;;;5138419;27;20079;-80
2023/06/20 13:23:25;;;;;;;5.65;3.20;;;;;;;;;;5121526;27;20038;-81
2023/06/20 13:25:51;;;;;;;3.72;3.42;;;;;;;;;;5116128;27;20039;-80
2023/06/20 13:28:16;;;;;;;3.50;3.30;;;;;;;;;;5131404;27;20035;-81
2023/06/20 13:30:42;;;;;;;5.00;3.00;;;;;;;;;;5101858;27;20027;-82
2023/06/20 13:33:08;;;;;;;4.45;3.63;;;;;;;;;;5120310;27;20103;-83
2023/06/20 13:35:34;;;;;;;4.35;3.92;;;;;;;;;;5145239;27;20035;-84
2023/06/20 13:38:01;;;;;;;4.18;3.55;;;;;;;;;;5143126;27;20412;-82
2023/06/20 13:40:30;;;;;;;3.22;3.03;;;;;;;;;;5119341;27;20031;-82
2023/06/20 13:42:56;;;;;;;5.30;3.30;;;;;;;;;;5117975;27;20027;-82
2023/06/20 13:45:22;;;;;;;7.88;3.22;;;;;;;;;;5100197;27;20099;-83
2023/06/20 13:47:48;;;;;;;3.65;3.35;;;;;;;;;;5137899;27;20062;-82
2023/06/20 13:50:15;;;;;;;6.55;3.08;;;;;;;;;;5119845;27;20035;-83
2023/06/20 13:52:41;;;;;;;3.70;3.40;;;;;;;;;;5124207;27;20381;-83
2023/06/20 13:55:07;;;;;;;4.07;2.78;;;;;;;;;;5127811;27;20493;-84
2023/06/20 13:57:33;;;;;;;5.18;3.20;;;;;;;;;;5125182;27;20057;-83
2023/06/20 14:00:00;;;;;;;3.05;2.85;;;;;;;;;;5126179;27;20034;-83
2023/06/20 14:02:31;;;;;;;3.92;3.15;;;;;;;;;;5111493;27;20046;-84
2023/06/20 14:04:57;;;;;;;3.50;3.30;;;;;;;;;;5158103;27;20030;-86
2023/06/20 14:07:23;;;;;;;7.53;3.10;;;;;;;;;;5160786;27;20047;-87
2023/06/20 14:09:50;;;;;;;6.93;4.32;;;;;;;;;;5319880;22;20051;-86
2023/06/20 14:12:15;;;;;;;4.93;3.58;;;;;;;;;;5101883;28;20045;-89
2023/06/20 14:14:41;;;;;;;5.05;3.58;;;;;;;;;;5422412;22;20037;-84
2023/06/20 14:17:08;;;;;;;3.75;3.45;;;;;;;;;;5099100;28;20040;-85
2023/06/20 14:22:50;;;;;;;3.92;3.60;;;;;;;;;;5755165;22;20060;31
2023/06/20 14:28:24;;;;;;;3.80;3.60;;;;;;;;;;5906162;22;21157;31
2023/06/20 14:30:50;;;;;;;5.90;3.40;;;;;;;;;;5540467;22;20036;-85
2023/06/20 14:36:05;;;;;;;4.10;3.75;;;;;;;;;;5534801;22;20038;-84
2023/06/20 14:38:54;;;;;;;8.60;3.75;;;;;;;;;;5678506;22;20268;-78
2023/06/20 14:41:21;;;;;;;3.88;3.53;;;;;;;;;;5056968;28;20033;-86
2023/06/20 14:43:47;;;;;;;4.32;3.90;;;;;;;;;;5058190;28;20024;-87
2023/06/20 14:46:13;;;;;;;6.20;3.60;;;;;;;;;;5144506;22;20046;-88